Terminal Aerodrome Forecast
Issued by NWS

Home | Current Version | Previous Version | Text Only | Print | Product List | Glossary On
Versions: 1 2 3 4 5 6 7 8 9 10 11 12 13 14 15 16 17 18 19 20 21 22 23
124
FTUS44 KLZK 290600 AAA
TAFLLQ
TAF AMD
KLLQ 290600Z 2906/3006 VRB02KT P6SM SCT009
      TEMPO 2908/2912 4SM BR BKN009
     FM291300 24005KT P6SM VCTS SCT050CB=

USA.gov is the U.S. government's official web portal to all federal, state and local government web resources and services.